Time;durP1;ratioP1;P1;durP2;ratioP2;P2;SDS_P1;SDS_P2;PMS_P1;PMS_P2;Temp;Humidity;BMP_temperature;BMP_pressure;BME280_temperature;BME280_humidity;BME280_pressure;Samples;Min_cycle;Max_cycle;Signal;HPM_P1;HPM_P2
2021/03/10 00:02:23;;;;;;;23.00;18.77;;;;;;;6.04;50.77;101516.28;5062460;28;20449;-79
2021/03/10 00:04:49;;;;;;;24.17;19.50;;;;;;;6.83;47.94;101519.38;5063946;28;20188;-78
2021/03/10 00:07:14;;;;;;;24.07;18.63;;;;;;;7.06;47.52;101520.22;5060360;28;20539;-78
2021/03/10 00:09:39;;;;;;;22.43;17.07;;;;;;;7.51;46.53;101513.09;5062145;28;20243;-78
2021/03/10 00:12:05;;;;;;;22.30;17.97;;;;;;;6.61;48.48;101522.84;5065173;28;20177;-78
2021/03/10 00:14:30;;;;;;;22.37;18.53;;;;;;;7.19;46.36;101518.06;5063736;28;20181;-79
2021/03/10 00:16:56;;;;;;;24.07;18.10;;;;;;;7.36;46.14;101527.34;5061925;28;20170;-78
2021/03/10 00:19:21;;;;;;;21.37;17.60;;;;;;;7.08;46.54;101518.53;5062773;28;20531;-78
2021/03/10 00:21:46;;;;;;;20.63;17.00;;;;;;;6.13;49.20;101533.00;5059435;28;20185;-79
2021/03/10 00:24:12;;;;;;;19.57;16.90;;;;;;;6.46;48.99;101517.06;5059808;28;20169;-78
2021/03/10 00:26:37;;;;;;;22.50;18.90;;;;;;;6.12;49.30;101523.50;5059394;28;20226;-78
2021/03/10 00:29:03;;;;;;;21.00;16.77;;;;;;;6.75;47.87;101520.75;5059229;28;20209;-79
2021/03/10 00:31:28;;;;;;;23.23;17.33;;;;;;;6.76;47.33;101522.53;5059719;28;20201;-80
2021/03/10 00:33:53;;;;;;;25.27;18.03;;;;;;;6.34;47.50;101523.53;5059504;28;20180;-79
2021/03/10 00:36:19;;;;;;;24.93;17.23;;;;;;;6.59;46.74;101521.91;5059522;28;20184;-78
2021/03/10 00:38:44;;;;;;;21.60;17.17;;;;;;;6.69;46.54;101516.22;5059662;28;20174;-79
2021/03/10 00:41:12;;;;;;;22.30;17.10;;;;;;;6.83;46.22;101510.69;5058917;28;20462;-78
2021/03/10 00:43:37;;;;;;;22.53;18.13;;;;;;;7.04;45.29;101513.22;5058960;28;20170;-79
2021/03/10 00:46:02;;;;;;;20.00;16.43;;;;;;;6.78;46.37;101517.41;5059486;28;20414;-77
2021/03/10 00:48:27;;;;;;;23.60;18.00;;;;;;;7.11;45.07;101517.78;5059355;28;20586;-79
2021/03/10 00:50:53;;;;;;;20.30;15.50;;;;;;;6.67;45.92;101514.41;5058144;28;20176;-80
2021/03/10 00:53:18;;;;;;;20.10;17.10;;;;;;;6.78;46.48;101517.41;5059533;28;20531;-77
2021/03/10 00:55:43;;;;;;;19.47;16.30;;;;;;;6.70;46.54;101527.50;5058113;28;20193;-79
2021/03/10 00:58:09;;;;;;;22.70;16.20;;;;;;;5.87;47.58;101530.22;5058810;28;20181;-78
2021/03/10 01:00:34;;;;;;;19.53;15.57;;;;;;;6.65;46.05;101527.31;5059042;28;20169;-78
2021/03/10 01:02:59;;;;;;;20.27;15.60;;;;;;;6.71;45.42;101526.66;5058495;28;20621;-78
2021/03/10 01:05:30;;;;;;;20.50;16.03;;;;;;;6.64;46.12;101517.75;5058479;28;20166;-78
2021/03/10 01:07:55;;;;;;;18.20;14.53;;;;;;;6.06;47.38;101534.47;5059019;28;20253;-78
2021/03/10 01:10:21;;;;;;;21.20;16.83;;;;;;;6.82;46.60;101527.06;5058416;28;20805;-78
2021/03/10 01:12:46;;;;;;;19.50;15.70;;;;;;;6.79;46.36;101524.34;5058460;28;20173;-78
2021/03/10 01:15:15;;;;;;;21.43;17.07;;;;;;;6.82;45.45;101517.59;5058673;28;20536;-77
2021/03/10 01:17:40;;;;;;;18.77;16.07;;;;;;;6.97;44.95;101509.50;5058351;28;20490;-79
2021/03/10 01:20:12;;;;;;;18.50;14.90;;;;;;;6.54;45.75;101518.25;5057972;28;20427;-78
2021/03/10 01:22:37;;;;;;;18.80;14.90;;;;;;;5.89;47.27;101520.81;5057617;28;20235;-79
2021/03/10 01:25:03;;;;;;;20.40;15.77;;;;;;;5.53;48.06;101524.53;5058118;28;20817;-78
2021/03/10 01:27:28;;;;;;;20.47;15.90;;;;;;;5.64;48.39;101521.50;5058230;28;20258;-78
2021/03/10 01:29:54;;;;;;;22.10;14.90;;;;;;;6.07;47.02;101521.63;5058569;28;20509;-78
2021/03/10 01:32:19;;;;;;;18.33;14.20;;;;;;;5.63;48.06;101522.28;5058088;28;20280;-78
2021/03/10 01:34:44;;;;;;;25.70;14.90;;;;;;;6.52;45.91;101522.47;5057995;28;20174;-77
2021/03/10 01:37:10;;;;;;;18.70;15.70;;;;;;;6.72;45.52;101511.19;5058563;28;20232;-77
2021/03/10 01:39:35;;;;;;;19.83;15.70;;;;;;;6.50;44.55;101524.13;5057969;28;20177;-77
2021/03/10 01:42:02;;;;;;;20.97;15.77;;;;;;;6.66;44.97;101516.13;5062336;28;20185;-78
2021/03/10 01:44:28;;;;;;;20.10;15.63;;;;;;;6.46;45.67;101507.59;5058389;28;20441;-78
2021/03/10 01:46:53;;;;;;;20.53;16.40;;;;;;;6.80;45.90;101510.59;5058963;28;20451;-76
2021/03/10 01:49:19;;;;;;;21.43;15.20;;;;;;;6.72;45.14;101508.59;5058913;28;20266;-77
2021/03/10 01:51:45;;;;;;;20.60;14.67;;;;;;;6.80;45.09;101508.88;5058762;28;20209;-78
2021/03/10 01:54:10;;;;;;;17.87;14.30;;;;;;;6.73;46.22;101509.47;5057856;28;20177;-77
2021/03/10 01:56:36;;;;;;;19.00;16.10;;;;;;;6.54;45.72;101507.88;5058037;28;20874;-77
2021/03/10 01:59:02;;;;;;;22.27;15.23;;;;;;;6.91;45.12;101504.06;5058468;28;20166;-79
2021/03/10 02:01:27;;;;;;;19.20;15.30;;;;;;;6.88;44.69;101501.38;5057864;28;20428;-77
2021/03/10 02:03:52;;;;;;;18.70;14.90;;;;;;;7.00;43.56;101499.25;5057912;28;20554;-77
2021/03/10 02:06:48;;;;;;;17.97;14.93;;;;;;;6.76;45.11;101508.72;5058434;28;20197;-77
2021/03/10 02:09:26;;;;;;;18.83;16.00;;;;;;;6.31;45.25;101519.94;5057195;28;20244;-79
2021/03/10 02:12:36;;;;;;;16.47;13.73;;;;;;;6.72;45.60;101508.59;5057161;28;20423;-78
2021/03/10 02:15:12;;;;;;;20.57;14.70;;;;;;;6.86;44.63;101510.78;5051621;28;20427;-77
2021/03/10 02:17:42;;;;;;;20.27;17.20;;;;;;;6.59;45.21;101516.72;5057205;28;20465;-78
2021/03/10 02:20:28;;;;;;;18.83;16.20;;;;;;;6.38;45.37;101514.16;5057243;28;20434;-78
2021/03/10 02:23:17;;;;;;;18.70;14.57;;;;;;;6.24;47.10;101518.81;5056461;28;20427;-77
2021/03/10 02:26:01;;;;;;;19.93;15.90;;;;;;;6.43;45.37;101512.66;5040086;28;20458;-78
2021/03/10 02:28:27;;;;;;;19.50;15.53;;;;;;;6.56;46.12;101517.50;5057817;28;20447;-78
2021/03/10 02:30:53;;;;;;;21.07;15.90;;;;;;;6.79;46.55;101514.88;5061261;28;20415;-77
2021/03/10 02:33:20;;;;;;;19.70;14.73;;;;;;;6.76;44.88;101517.34;5061194;28;20673;-77
2021/03/10 02:35:48;;;;;;;18.00;15.10;;;;;;;6.44;46.60;101510.94;5061109;28;20440;-78
2021/03/10 02:38:17;;;;;;;21.53;14.70;;;;;;;6.51;46.55;101502.59;5066840;28;20416;-78
2021/03/10 02:40:43;;;;;;;17.27;13.90;;;;;;;6.66;46.83;101502.31;5076556;28;20412;-78
2021/03/10 02:43:09;;;;;;;17.97;14.07;;;;;;;6.56;46.29;101507.13;5077340;28;20384;-77
2021/03/10 02:45:35;;;;;;;16.17;13.60;;;;;;;6.25;45.79;101510.19;5078270;28;20442;-77
2021/03/10 02:48:02;;;;;;;19.87;14.20;;;;;;;6.28;46.50;101507.75;5070352;28;20674;-77
2021/03/10 02:50:28;;;;;;;17.57;14.20;;;;;;;6.62;45.25;101511.66;5063699;28;20547;-77
2021/03/10 02:52:54;;;;;;;18.63;14.13;;;;;;;6.84;44.98;101515.06;5062813;28;20451;-77
2021/03/10 02:55:19;;;;;;;19.03;14.90;;;;;;;6.70;45.04;101525.78;5061737;28;20252;-77
2021/03/10 02:57:45;;;;;;;19.27;16.40;;;;;;;6.88;44.83;101515.22;5061019;28;20436;-78
2021/03/10 03:00:17;;;;;;;17.70;14.47;;;;;;;6.57;44.89;101514.03;5061430;28;20188;-80
2021/03/10 03:02:42;;;;;;;18.70;14.70;;;;;;;6.84;44.70;101508.16;5061602;28;20166;-80
2021/03/10 03:05:08;;;;;;;17.17;13.77;;;;;;;5.95;47.64;101515.88;5067969;28;20404;-78
2021/03/10 03:07:36;;;;;;;17.53;14.13;;;;;;;6.51;45.19;101503.47;5065965;28;20185;-79
2021/03/10 03:10:04;;;;;;;18.30;13.97;;;;;;;6.62;44.70;101503.88;5073366;28;20222;-79
2021/03/10 03:12:29;;;;;;;20.10;14.60;;;;;;;6.79;43.73;101512.28;5066018;28;20435;-80
2021/03/10 03:14:56;;;;;;;16.27;13.80;;;;;;;6.73;44.69;101505.16;5046689;28;20435;-78
2021/03/10 03:17:22;;;;;;;18.50;15.00;;;;;;;6.49;44.58;101507.69;5062218;28;20212;-78
2021/03/10 03:19:47;;;;;;;18.90;14.73;;;;;;;5.91;46.20;101516.56;5060980;28;20388;-77
2021/03/10 03:22:13;;;;;;;17.30;14.27;;;;;;;6.44;45.73;101509.25;5060630;28;20162;-77
2021/03/10 03:24:38;;;;;;;20.83;14.53;;;;;;;6.50;45.21;101516.38;5062532;28;20200;-77
2021/03/10 03:27:04;;;;;;;16.40;13.70;;;;;;;6.52;45.25;101513.00;5063835;28;20218;-78
2021/03/10 03:29:31;;;;;;;16.70;13.77;;;;;;;6.35;47.08;101514.06;5063810;28;20248;-79
2021/03/10 03:31:57;;;;;;;16.50;14.10;;;;;;;6.36;46.34;101501.16;5061603;28;20447;-78
2021/03/10 03:34:23;;;;;;;17.87;13.83;;;;;;;6.11;46.70;101501.91;5060379;28;20666;-79
2021/03/10 03:36:49;;;;;;;18.37;14.60;;;;;;;6.13;46.91;101501.94;5043267;28;20420;-78
2021/03/10 03:39:15;;;;;;;18.60;14.50;;;;;;;6.17;47.28;101496.06;5063646;28;20407;-77
2021/03/10 03:41:41;;;;;;;18.37;14.67;;;;;;;6.33;45.95;101484.63;5059422;28;20170;-78
2021/03/10 03:44:06;;;;;;;18.70;14.33;;;;;;;5.71;47.59;101485.59;5042976;28;20541;-78
2021/03/10 03:46:32;;;;;;;17.90;14.40;;;;;;;5.66;47.62;101476.75;5060531;28;20161;-79
2021/03/10 03:49:01;;;;;;;18.10;14.20;;;;;;;5.88;46.74;101475.06;5060876;28;20201;-78
2021/03/10 03:51:30;;;;;;;19.53;14.03;;;;;;;5.48;47.92;101478.56;5060654;28;20513;-76
2021/03/10 03:53:57;;;;;;;17.37;13.50;;;;;;;5.37;47.80;101467.75;5060402;28;20692;-78
2021/03/10 03:56:23;;;;;;;15.00;12.73;;;;;;;5.81;46.65;101473.03;5059719;28;20462;-78
2021/03/10 03:58:48;;;;;;;16.13;13.10;;;;;;;5.85;45.79;101473.22;5059665;28;20427;-79
2021/03/10 04:01:13;;;;;;;18.63;13.40;;;;;;;5.88;46.22;101475.06;5060001;28;20239;-78
2021/03/10 04:03:39;;;;;;;18.90;14.30;;;;;;;5.90;45.64;101474.28;5059567;28;20601;-79
2021/03/10 04:06:04;;;;;;;17.33;13.33;;;;;;;6.02;45.39;101483.41;5059009;28;20173;-77
2021/03/10 04:08:29;;;;;;;18.00;13.83;;;;;;;5.46;48.42;101481.09;5059719;28;20223;-79
2021/03/10 04:10:55;;;;;;;18.00;13.10;;;;;;;5.79;47.40;101485.03;5059287;28;20561;-79
2021/03/10 04:13:20;;;;;;;15.27;12.60;;;;;;;5.53;47.48;101484.81;5059296;28;20176;-78
2021/03/10 04:15:45;;;;;;;15.80;11.90;;;;;;;5.46;48.68;101483.69;5059897;28;20421;-78
2021/03/10 04:18:11;;;;;;;15.53;12.40;;;;;;;5.37;46.89;101480.69;5059555;28;20166;-78
2021/03/10 04:20:36;;;;;;;14.93;12.07;;;;;;;5.60;45.94;101481.66;5059171;28;20169;-77
2021/03/10 04:23:01;;;;;;;16.00;12.57;;;;;;;5.06;48.05;101489.72;5059314;28;20158;-78
2021/03/10 04:25:26;;;;;;;15.60;12.63;;;;;;;5.09;47.45;101495.03;5058861;28;20221;-79
2021/03/10 04:27:52;;;;;;;16.50;12.80;;;;;;;5.47;47.25;101492.34;5058981;28;20181;-79
2021/03/10 04:30:17;;;;;;;14.83;12.00;;;;;;;5.38;48.94;101485.94;5059482;28;20239;-78
2021/03/10 04:32:43;;;;;;;16.53;12.73;;;;;;;5.40;47.70;101491.19;5058769;28;20267;-78
2021/03/10 04:35:09;;;;;;;14.77;12.83;;;;;;;4.94;48.86;101487.47;5059043;28;20169;-77
2021/03/10 04:37:34;;;;;;;17.47;13.57;;;;;;;5.35;47.42;101482.34;5059135;28;20436;-78
2021/03/10 04:40:00;;;;;;;18.90;13.27;;;;;;;4.98;48.32;101491.06;5058822;28;20424;-78
2021/03/10 04:42:25;;;;;;;15.57;13.37;;;;;;;5.28;46.74;101490.66;5058755;28;20180;-77
2021/03/10 04:44:51;;;;;;;20.13;14.20;;;;;;;4.69;48.76;101499.25;5059216;28;20165;-76
2021/03/10 04:47:16;;;;;;;16.53;12.43;;;;;;;5.15;47.34;101486.66;5058804;28;20487;-78
2021/03/10 04:49:41;;;;;;;16.83;12.97;;;;;;;4.98;48.66;101496.22;5058472;28;20283;-78
2021/03/10 04:52:07;;;;;;;16.90;12.43;;;;;;;4.48;48.47;101498.28;5058676;28;20165;-77
2021/03/10 04:54:32;;;;;;;18.93;12.40;;;;;;;4.91;48.17;101484.72;5058973;28;20169;-79
2021/03/10 04:56:57;;;;;;;15.43;11.67;;;;;;;4.70;49.16;101489.84;5058812;28;20162;-79
2021/03/10 04:59:23;;;;;;;13.93;10.23;;;;;;;4.30;48.92;101503.47;5059081;28;20176;-79
2021/03/10 05:01:48;;;;;;;19.10;12.07;;;;;;;4.62;49.20;101494.63;5058476;28;20184;-77
2021/03/10 05:04:13;;;;;;;13.80;11.50;;;;;;;4.35;49.30;101489.94;5058466;28;20174;-78
2021/03/10 05:06:40;;;;;;;17.50;11.70;;;;;;;4.49;48.95;101487.13;5058795;28;20346;-79
2021/03/10 05:09:06;;;;;;;13.33;11.83;;;;;;;4.15;50.20;101476.09;5058327;28;20197;-78
2021/03/10 05:11:32;;;;;;;12.77;10.23;;;;;;;4.01;49.78;101485.78;5058237;28;20419;-80
2021/03/10 05:13:58;;;;;;;13.40;11.20;;;;;;;4.05;50.83;101490.25;5058875;28;20166;-78
2021/03/10 05:16:23;;;;;;;15.07;11.47;;;;;;;4.37;50.04;101482.28;5058301;28;20404;-77
2021/03/10 05:18:48;;;;;;;14.20;11.30;;;;;;;4.42;48.66;101485.09;5058131;28;20169;-78
2021/03/10 05:21:14;;;;;;;17.63;11.50;;;;;;;4.65;49.48;101492.19;5058632;28;20170;-78
2021/03/10 05:23:41;;;;;;;14.17;10.80;;;;;;;4.58;48.91;101492.72;5058254;28;20481;-79
2021/03/10 05:26:08;;;;;;;14.60;11.30;;;;;;;4.62;48.87;101492.06;5058116;28;20463;-77
2021/03/10 05:28:33;;;;;;;14.67;11.07;;;;;;;4.91;47.72;101495.06;5058624;28;20443;-77
2021/03/10 05:30:59;;;;;;;14.10;11.00;;;;;;;4.50;49.95;101496.66;5057569;28;20429;-80
2021/03/10 05:33:24;;;;;;;15.30;11.27;;;;;;;4.39;50.28;101499.59;5058375;28;20193;-79
2021/03/10 05:35:49;;;;;;;15.83;10.73;;;;;;;4.95;48.30;101490.94;5061263;28;20173;-77
2021/03/10 05:38:15;;;;;;;15.40;10.63;;;;;;;4.50;48.97;101491.50;5060492;28;20181;-77
2021/03/10 05:40:40;;;;;;;15.30;11.60;;;;;;;4.48;48.73;101493.09;5057876;28;20181;-77
2021/03/10 05:43:06;;;;;;;12.87;10.70;;;;;;;4.65;48.44;101496.47;5058453;28;20166;-78
2021/03/10 05:45:31;;;;;;;12.43;10.70;;;;;;;4.84;49.73;101500.78;5057896;28;20478;-77
2021/03/10 05:47:56;;;;;;;12.13;10.17;;;;;;;4.68;49.03;101500.09;5057814;28;20219;-78
2021/03/10 05:50:22;;;;;;;14.13;11.93;;;;;;;4.31;48.92;101500.06;5059666;28;20258;-78
2021/03/10 05:52:51;;;;;;;14.40;10.43;;;;;;;4.59;48.43;101504.84;5058675;28;20184;-78
2021/03/10 05:55:16;;;;;;;14.90;11.30;;;;;;;3.91;48.23;101511.94;5058370;28;20256;-77
2021/03/10 05:57:42;;;;;;;12.67;10.10;;;;;;;3.85;50.67;101515.09;5058444;28;20512;-78
2021/03/10 06:00:15;;;;;;;12.57;9.90;;;;;;;4.16;48.60;101518.28;5056989;28;20597;-78
2021/03/10 06:02:40;;;;;;;14.90;10.03;;;;;;;4.36;48.05;101506.34;5057662;28;20622;-77
2021/03/10 06:05:18;;;;;;;12.17;10.23;;;;;;;4.51;48.02;101507.06;5060974;28;20447;-77
2021/03/10 06:07:43;;;;;;;14.97;11.30;;;;;;;4.86;48.02;101507.78;5061770;28;20170;-78
2021/03/10 06:10:09;;;;;;;14.90;11.40;;;;;;;4.82;48.92;101510.19;5061801;28;20459;-80
2021/03/10 06:12:38;;;;;;;18.23;11.70;;;;;;;4.86;48.44;101506.91;5061458;28;20535;-78
2021/03/10 06:15:05;;;;;;;14.17;11.30;;;;;;;5.14;48.16;101513.31;5060819;28;20173;-77
2021/03/10 06:17:40;;;;;;;11.97;10.00;;;;;;;4.18;47.76;101503.75;5061775;28;20412;-78
2021/03/10 06:20:06;;;;;;;12.93;9.77;;;;;;;4.86;46.48;101512.09;5061351;28;20415;-78
2021/03/10 06:22:34;;;;;;;13.97;10.87;;;;;;;4.60;48.43;101511.78;5060954;28;20418;-77
2021/03/10 06:25:00;;;;;;;11.40;10.07;;;;;;;4.54;48.94;101514.06;5061087;28;20442;-78
2021/03/10 06:27:26;;;;;;;16.83;10.40;;;;;;;4.55;47.94;101511.53;5061197;28;20412;-78
2021/03/10 06:29:59;;;;;;;14.60;10.30;;;;;;;3.86;49.81;101506.53;5061491;28;20443;-77
2021/03/10 06:32:25;;;;;;;17.20;11.53;;;;;;;4.91;49.71;101507.13;5060790;28;20459;-79
2021/03/10 06:34:52;;;;;;;13.37;11.03;;;;;;;4.58;48.44;101509.94;5061017;28;20506;-79
2021/03/10 06:37:28;;;;;;;13.30;10.50;;;;;;;5.37;47.16;101501.38;5060341;28;20165;-77
2021/03/10 06:40:05;;;;;;;14.83;11.87;;;;;;;5.73;47.22;101502.06;5060448;28;20828;-77
2021/03/10 06:42:31;;;;;;;12.40;10.67;;;;;;;5.58;46.54;101504.00;5060890;28;20420;-76
2021/03/10 06:44:56;;;;;;;15.23;10.53;;;;;;;5.80;45.06;101512.66;5060294;28;20427;-77
2021/03/10 06:47:22;;;;;;;13.67;10.87;;;;;;;5.26;46.76;101503.50;5060673;28;20173;-78
2021/03/10 06:49:54;;;;;;;14.47;11.50;;;;;;;5.34;46.27;101512.47;5059952;28;20205;-78
2021/03/10 06:52:20;;;;;;;14.67;11.23;;;;;;;5.14;47.46;101514.22;5060120;28;20177;-78
2021/03/10 06:55:00;;;;;;;14.90;11.63;;;;;;;5.31;46.69;101522.69;5060648;28;20720;-78
2021/03/10 06:57:26;;;;;;;14.90;11.53;;;;;;;5.18;46.68;101528.13;5060656;28;20511;-77
2021/03/10 06:59:56;;;;;;;12.83;10.77;;;;;;;5.12;48.54;101523.59;5060692;28;20498;-77
2021/03/10 07:02:28;;;;;;;14.97;11.73;;;;;;;5.16;46.98;101524.63;5059720;28;20280;-78
2021/03/10 07:04:58;;;;;;;13.37;10.83;;;;;;;4.12;50.19;101532.72;5060628;28;20416;-76
2021/03/10 07:07:24;;;;;;;13.90;11.13;;;;;;;4.66;49.36;101524.97;5060642;28;20736;-78
2021/03/10 07:09:50;;;;;;;15.80;11.93;;;;;;;4.66;48.60;101531.84;5061084;28;20451;-78
2021/03/10 07:12:17;;;;;;;14.47;11.43;;;;;;;4.58;49.56;101531.47;5060181;28;20424;-78
2021/03/10 07:14:43;;;;;;;13.77;11.77;;;;;;;4.88;47.73;101531.09;5060068;28;20424;-78
2021/03/10 07:17:18;;;;;;;14.70;10.67;;;;;;;5.16;47.97;101532.38;5060835;28;20404;-78
2021/03/10 07:19:44;;;;;;;15.90;12.47;;;;;;;4.88;48.44;101542.34;5059842;28;20169;-78
2021/03/10 07:22:09;;;;;;;15.20;12.07;;;;;;;5.61;47.67;101542.94;5060242;28;20687;-78
2021/03/10 07:25:04;;;;;;;15.30;11.67;;;;;;;5.21;49.14;101531.75;5060393;28;20412;-76
2021/03/10 07:27:44;;;;;;;15.17;11.93;;;;;;;5.26;47.53;101531.06;5076909;28;20489;-75
2021/03/10 07:30:09;;;;;;;14.27;11.33;;;;;;;5.54;47.81;101534.03;5080245;28;20506;-74
2021/03/10 07:32:35;;;;;;;17.20;12.50;;;;;;;4.93;48.72;101532.22;5080358;28;20455;-74
2021/03/10 07:35:05;;;;;;;19.90;13.17;;;;;;;4.87;49.49;101542.25;5082434;28;20523;-74
2021/03/10 07:37:31;;;;;;;18.40;13.40;;;;;;;5.15;48.74;101534.03;5080163;28;20165;-75
2021/03/10 07:40:14;;;;;;;17.23;12.90;;;;;;;4.96;49.73;101541.81;5080574;28;20407;-72
2021/03/10 07:42:56;;;;;;;16.27;13.13;;;;;;;5.12;49.28;101533.03;5079804;28;20176;-72
2021/03/10 07:45:25;;;;;;;20.27;13.73;;;;;;;4.97;49.47;101535.84;5079817;28;20419;-73
2021/03/10 07:47:52;;;;;;;17.20;14.17;;;;;;;5.10;49.71;101537.25;5079766;28;20486;-73
2021/03/10 07:50:18;;;;;;;17.03;13.47;;;;;;;5.00;50.01;101536.84;5079663;28;20922;-73
2021/03/10 07:52:56;;;;;;;16.53;12.80;;;;;;;4.26;51.87;101533.38;5080404;28;20407;-73
2021/03/10 07:55:21;;;;;;;19.20;12.97;;;;;;;4.76;50.41;101540.88;5080316;28;20169;-74
2021/03/10 07:57:53;;;;;;;15.33;12.80;;;;;;;4.33;51.65;101526.81;5079840;28;20473;-71
2021/03/10 08:00:19;;;;;;;19.97;14.00;;;;;;;4.31;52.71;101526.75;5079262;28;20177;-74
2021/03/10 08:02:47;;;;;;;17.53;14.30;;;;;;;4.53;51.49;101530.34;5076968;28;20831;-72
2021/03/10 08:05:20;;;;;;;18.83;13.47;;;;;;;4.62;51.52;101533.38;5079077;28;20808;-78
2021/03/10 08:07:45;;;;;;;22.63;14.63;;;;;;;5.15;49.83;101540.94;5078344;28;20439;-72
2021/03/10 08:10:11;;;;;;;16.93;14.07;;;;;;;4.83;50.81;101540.34;5078922;28;20780;-71
2021/03/10 08:12:38;;;;;;;16.77;13.20;;;;;;;5.26;49.77;101541.41;5078767;28;20184;-73
2021/03/10 08:15:04;;;;;;;18.23;14.17;;;;;;;5.00;50.80;101531.66;5078868;28;20172;-71
2021/03/10 08:17:30;;;;;;;18.27;14.90;;;;;;;5.30;50.41;101525.22;5079213;28;20442;-71
2021/03/10 08:20:05;;;;;;;17.83;13.97;;;;;;;5.77;49.11;101523.78;5078953;28;20797;-71
2021/03/10 08:22:33;;;;;;;20.83;14.20;;;;;;;5.87;49.01;101533.69;5078136;28;20200;-72
2021/03/10 08:25:00;;;;;;;16.70;14.10;;;;;;;5.70;48.40;101540.75;5078974;28;20665;-72
2021/03/10 08:27:38;;;;;;;18.30;13.97;;;;;;;5.40;49.54;101551.53;5078110;28;20839;-71
2021/03/10 08:30:08;;;;;;;18.73;13.80;;;;;;;5.22;50.51;101541.28;5078731;28;20458;-72
2021/03/10 08:32:34;;;;;;;17.67;15.00;;;;;;;5.77;49.36;101543.59;5078619;28;20477;-72
2021/03/10 08:35:20;;;;;;;16.77;13.83;;;;;;;6.03;48.22;101542.13;5078818;28;20816;-71
2021/03/10 08:37:58;;;;;;;17.63;14.90;;;;;;;6.13;48.15;101538.19;5078708;28;20169;-72
2021/03/10 08:40:26;;;;;;;16.70;14.23;;;;;;;6.61;47.81;101537.50;5078509;28;20506;-73
2021/03/10 08:42:52;;;;;;;16.30;13.70;;;;;;;6.81;47.18;101535.69;5078178;28;20426;-73
2021/03/10 08:45:23;;;;;;;21.80;16.00;;;;;;;6.50;48.59;101534.50;5078521;28;20449;-72
2021/03/10 08:48:02;;;;;;;17.40;14.90;;;;;;;6.99;47.63;101536.34;5078057;28;20816;-72
2021/03/10 08:50:30;;;;;;;18.27;14.90;;;;;;;6.98;47.58;101524.25;5077518;28;20519;-76
2021/03/10 08:52:55;;;;;;;20.23;15.00;;;;;;;6.82;48.00;101524.47;5078261;28;20503;-76
2021/03/10 08:55:24;;;;;;;20.27;16.10;;;;;;;7.42;47.06;101511.97;5079157;28;20796;-71
2021/03/10 08:57:49;;;;;;;18.63;15.20;;;;;;;6.54;48.75;101513.06;5078895;28;20238;-73
2021/03/10 09:00:17;;;;;;;18.77;15.50;;;;;;;6.86;48.52;101503.94;5078795;28;20446;-74
2021/03/10 09:02:43;;;;;;;19.20;14.60;;;;;;;7.08;47.28;101495.22;5078948;28;20310;-72
2021/03/10 09:05:10;;;;;;;19.87;15.50;;;;;;;7.10;48.25;101489.19;5078377;28;20450;-72
2021/03/10 09:07:35;;;;;;;21.23;16.23;;;;;;;7.20;47.69;101496.50;5078715;28;20188;-72
2021/03/10 09:10:12;;;;;;;20.87;15.30;;;;;;;6.94;48.89;101496.44;5079535;28;20466;-71
2021/03/10 09:12:49;;;;;;;19.47;15.30;;;;;;;7.29;48.31;101494.19;5082144;28;20210;-72
2021/03/10 09:15:16;;;;;;;22.00;15.47;;;;;;;7.12;48.81;101484.94;5084144;28;20692;-72
2021/03/10 09:17:42;;;;;;;19.33;15.47;;;;;;;7.49;47.92;101488.84;5085044;28;20494;-72
2021/03/10 09:20:11;;;;;;;17.57;15.23;;;;;;;7.14;49.12;101493.66;5086093;28;20477;-73
2021/03/10 09:22:44;;;;;;;19.77;15.87;;;;;;;6.96;49.67;101491.31;5081697;28;20195;-77
2021/03/10 09:25:15;;;;;;;20.17;17.33;;;;;;;6.87;50.33;101478.88;5080012;28;20754;-74
2021/03/10 09:27:41;;;;;;;22.03;16.63;;;;;;;6.99;50.75;101479.31;5079462;28;20442;-74
2021/03/10 09:30:10;;;;;;;22.50;17.87;;;;;;;7.05;51.04;101474.38;5078924;28;20463;-72
2021/03/10 09:32:43;;;;;;;21.97;16.87;;;;;;;7.32;50.17;101478.78;5079707;28;20230;-73
2021/03/10 09:35:20;;;;;;;24.63;18.63;;;;;;;6.81;52.09;101482.13;5083267;28;20411;-73
2021/03/10 09:37:52;;;;;;;24.60;18.73;;;;;;;7.42;50.87;101480.84;5082117;28;20422;-72
2021/03/10 09:40:20;;;;;;;20.97;17.70;;;;;;;7.61;50.48;101480.59;5084552;28;20423;-73
2021/03/10 09:42:55;;;;;;;26.90;19.53;;;;;;;7.94;49.68;101475.63;5082547;28;20472;-71
2021/03/10 09:45:22;;;;;;;22.63;18.80;;;;;;;7.63;50.01;101479.81;5083376;28;20422;-71
2021/03/10 09:47:49;;;;;;;27.47;18.30;;;;;;;6.73;53.39;101480.97;5082858;28;20701;-72
2021/03/10 09:50:25;;;;;;;26.33;18.30;;;;;;;7.10;52.46;101478.84;5082506;28;20881;-74
2021/03/10 09:52:51;;;;;;;23.80;18.60;;;;;;;7.36;52.17;101475.44;5081760;28;20689;-72
2021/03/10 09:55:22;;;;;;;25.03;19.40;;;;;;;7.50;52.23;101469.84;5081797;28;20415;-72
2021/03/10 09:57:47;;;;;;;26.80;19.70;;;;;;;7.96;50.56;101458.38;5083008;28;20177;-71
2021/03/10 10:00:20;;;;;;;22.37;18.77;;;;;;;7.40;52.00;101472.13;5082661;28;20501;-72
2021/03/10 10:02:46;;;;;;;23.13;19.20;;;;;;;7.79;51.37;101449.16;5082207;28;20169;-72
2021/03/10 10:05:20;;;;;;;27.00;20.13;;;;;;;7.70;51.66;101458.44;5081794;28;20813;-71
2021/03/10 10:07:45;;;;;;;24.40;20.30;;;;;;;6.93;53.79;101463.56;5081044;28;20446;-73
2021/03/10 10:10:11;;;;;;;27.80;19.63;;;;;;;7.37;53.06;101448.69;5081801;28;20840;-72
2021/03/10 10:12:47;;;;;;;26.97;19.63;;;;;;;7.58;53.00;101455.44;5080672;28;20208;-72
2021/03/10 10:15:14;;;;;;;24.87;20.77;;;;;;;7.93;51.18;101450.50;5081294;28;20165;-72
2021/03/10 10:17:44;;;;;;;22.70;18.53;;;;;;;7.45;53.60;101448.94;5081267;28;20731;-71
2021/03/10 10:20:11;;;;;;;27.93;21.57;;;;;;;8.49;50.38;101442.72;5081193;28;20422;-72
2021/03/10 10:22:37;;;;;;;25.63;20.80;;;;;;;8.79;49.62;101441.81;5081299;28;20506;-72
2021/03/10 10:25:03;;;;;;;23.50;19.80;;;;;;;9.03;49.03;101439.03;5080736;28;20498;-72
2021/03/10 10:27:29;;;;;;;25.43;21.57;;;;;;;8.14;50.98;101434.69;5081084;28;20177;-72
2021/03/10 10:29:54;;;;;;;26.47;21.50;;;;;;;8.42;51.19;101433.81;5081120;28;20458;-72
2021/03/10 10:32:19;;;;;;;27.40;21.30;;;;;;;8.28;51.61;101435.16;5081002;28;20226;-74
2021/03/10 10:34:45;;;;;;;27.33;21.60;;;;;;;8.11;52.30;101436.34;5080886;28;20247;-73
2021/03/10 10:37:10;;;;;;;35.73;23.07;;;;;;;8.52;51.25;101427.19;5081174;28;20157;-77
2021/03/10 10:39:35;;;;;;;25.87;21.10;;;;;;;8.84;50.41;101429.84;5080879;28;20283;-78
2021/03/10 10:42:01;;;;;;;25.93;21.00;;;;;;;8.62;50.77;101428.38;5080694;28;20169;-77
2021/03/10 10:44:26;;;;;;;25.77;20.97;;;;;;;9.25;48.81;101429.19;5081045;28;20175;-74
2021/03/10 10:46:51;;;;;;;27.07;22.27;;;;;;;9.24;49.26;101427.44;5080534;28;20177;-71
2021/03/10 10:49:17;;;;;;;28.90;22.33;;;;;;;9.57;48.57;101410.94;5080111;28;20227;-70
2021/03/10 10:51:43;;;;;;;25.87;21.70;;;;;;;9.53;48.91;101409.97;5080757;28;20199;-73
2021/03/10 10:54:09;;;;;;;25.37;21.10;;;;;;;8.70;50.47;101412.97;5080758;28;20254;-74
2021/03/10 10:56:35;;;;;;;27.30;20.97;;;;;;;9.51;48.53;101405.56;5080275;28;20414;-73
2021/03/10 10:59:00;;;;;;;23.60;20.33;;;;;;;9.64;49.15;101399.81;5081182;28;20407;-72
2021/03/10 11:01:25;;;;;;;27.27;20.93;;;;;;;8.95;50.44;101414.53;5080597;28;20169;-75
2021/03/10 11:03:50;;;;;;;27.60;21.77;;;;;;;9.17;49.71;101417.72;5080652;28;20172;-74
2021/03/10 11:06:16;;;;;;;24.90;21.87;;;;;;;9.53;48.53;101398.69;5080922;28;20186;-72
2021/03/10 11:08:41;;;;;;;26.60;20.30;;;;;;;9.00;49.89;101406.84;5080468;28;20516;-72
2021/03/10 11:11:07;;;;;;;23.67;19.60;;;;;;;8.84;49.97;101406.44;5080429;28;20471;-72
2021/03/10 11:13:32;;;;;;;23.90;20.27;;;;;;;9.28;48.76;101403.25;5080333;28;20647;-74
2021/03/10 11:15:57;;;;;;;21.00;18.00;;;;;;;9.49;47.16;101409.88;5080284;28;20191;-74
2021/03/10 11:18:23;;;;;;;20.50;17.37;;;;;;;9.05;48.16;101405.25;5080223;28;20173;-73
2021/03/10 11:20:48;;;;;;;21.97;17.67;;;;;;;9.37;46.94;101411.28;5080503;28;20180;-75